sensor_id;sensor_type;location;lat;lon;timestamp;temperature;humidity
56542;DHT22;42438;53.174;6.730;2024-02-04T00:00:16;6.40;99.90
56542;DHT22;42438;53.174;6.730;2024-02-04T00:02:48;6.00;99.90
56542;DHT22;42438;53.174;6.730;2024-02-04T00:05:19;5.80;99.90
56542;DHT22;42438;53.174;6.730;2024-02-04T00:07:49;5.90;99.90
56542;DHT22;42438;53.174;6.730;2024-02-04T00:10:20;6.20;99.90
56542;DHT22;42438;53.174;6.730;2024-02-04T00:12:51;6.30;99.90
56542;DHT22;42438;53.174;6.730;2024-02-04T00:15:21;6.00;99.90
56542;DHT22;42438;53.174;6.730;2024-02-04T00:17:52;7.10;99.90
56542;DHT22;42438;53.174;6.730;2024-02-04T00:20:23;6.20;99.90
56542;DHT22;42438;53.174;6.730;2024-02-04T00:22:56;6.30;99.90
56542;DHT22;42438;53.174;6.730;2024-02-04T00:25:26;6.40;99.90
56542;DHT22;42438;53.174;6.730;2024-02-04T00:27:59;6.50;99.90
56542;DHT22;42438;53.174;6.730;2024-02-04T00:30:30;6.20;99.90
56542;DHT22;42438;53.174;6.730;2024-02-04T00:33:00;6.10;99.90
56542;DHT22;42438;53.174;6.730;2024-02-04T00:35:33;5.80;99.90
56542;DHT22;42438;53.174;6.730;2024-02-04T00:38:04;6.30;99.90
56542;DHT22;42438;53.174;6.730;2024-02-04T00:40:34;6.20;99.90
56542;DHT22;42438;53.174;6.730;2024-02-04T00:43:05;6.30;99.90
56542;DHT22;42438;53.174;6.730;2024-02-04T00:45:36;6.00;99.90
56542;DHT22;42438;53.174;6.730;2024-02-04T00:48:06;5.80;99.90
56542;DHT22;42438;53.174;6.730;2024-02-04T00:50:37;5.60;99.90
56542;DHT22;42438;53.174;6.730;2024-02-04T00:53:08;5.60;99.90
56542;DHT22;42438;53.174;6.730;2024-02-04T00:55:38;6.40;99.90
56542;DHT22;42438;53.174;6.730;2024-02-04T00:58:09;6.20;99.90
56542;DHT22;42438;53.174;6.730;2024-02-04T01:00:40;5.50;99.90
56542;DHT22;42438;53.174;6.730;2024-02-04T01:03:10;5.90;99.90
56542;DHT22;42438;53.174;6.730;2024-02-04T01:05:41;6.40;99.90
56542;DHT22;42438;53.174;6.730;2024-02-04T01:08:12;5.80;99.90
56542;DHT22;42438;53.174;6.730;2024-02-04T01:10:42;5.50;99.90
56542;DHT22;42438;53.174;6.730;2024-02-04T01:13:13;5.90;99.90
56542;DHT22;42438;53.174;6.730;2024-02-04T01:15:44;6.30;99.90
56542;DHT22;42438;53.174;6.730;2024-02-04T01:18:15;5.40;99.90
56542;DHT22;42438;53.174;6.730;2024-02-04T01:20:45;6.70;99.90
56542;DHT22;42438;53.174;6.730;2024-02-04T01:23:16;5.50;99.90
56542;DHT22;42438;53.174;6.730;2024-02-04T01:25:50;5.60;99.90
56542;DHT22;42438;53.174;6.730;2024-02-04T01:28:20;5.80;99.90
56542;DHT22;42438;53.174;6.730;2024-02-04T01:30:51;6.00;99.90
56542;DHT22;42438;53.174;6.730;2024-02-04T01:33:22;6.20;99.90
56542;DHT22;42438;53.174;6.730;2024-02-04T01:35:52;5.60;99.90
56542;DHT22;42438;53.174;6.730;2024-02-04T01:38:23;6.30;99.90
56542;DHT22;42438;53.174;6.730;2024-02-04T01:40:53;5.80;99.90
56542;DHT22;42438;53.174;6.730;2024-02-04T01:43:24;5.60;99.90
56542;DHT22;42438;53.174;6.730;2024-02-04T01:45:56;5.30;99.90
56542;DHT22;42438;53.174;6.730;2024-02-04T01:48:26;6.40;99.90
56542;DHT22;42438;53.174;6.730;2024-02-04T01:50:58;5.30;99.90
56542;DHT22;42438;53.174;6.730;2024-02-04T01:53:29;5.40;99.90
56542;DHT22;42438;53.174;6.730;2024-02-04T01:56:02;5.30;99.90
56542;DHT22;42438;53.174;6.730;2024-02-04T01:58:34;5.30;99.90
56542;DHT22;42438;53.174;6.730;2024-02-04T02:01:05;5.10;99.90
56542;DHT22;42438;53.174;6.730;2024-02-04T02:03:36;5.60;99.90
56542;DHT22;42438;53.174;6.730;2024-02-04T02:06:09;5.50;99.90
56542;DHT22;42438;53.174;6.730;2024-02-04T02:08:41;6.50;99.90
56542;DHT22;42438;53.174;6.730;2024-02-04T02:11:24;5.10;99.90
56542;DHT22;42438;53.174;6.730;2024-02-04T02:14:00;5.20;99.90
56542;DHT22;42438;53.174;6.730;2024-02-04T02:16:32;5.40;99.90
56542;DHT22;42438;53.174;6.730;2024-02-04T02:19:40;5.60;99.90
56542;DHT22;42438;53.174;6.730;2024-02-04T02:22:26;5.50;99.90
56542;DHT22;42438;53.174;6.730;2024-02-04T02:24:59;5.00;99.90
56542;DHT22;42438;53.174;6.730;2024-02-04T02:27:31;4.90;99.90
56542;DHT22;42438;53.174;6.730;2024-02-04T02:30:01;5.40;99.90
56542;DHT22;42438;53.174;6.730;2024-02-04T02:32:33;4.90;99.90
56542;DHT22;42438;53.174;6.730;2024-02-04T02:35:04;5.70;99.90
56542;DHT22;42438;53.174;6.730;2024-02-04T02:37:46;5.30;99.90
56542;DHT22;42438;53.174;6.730;2024-02-04T02:40:30;5.30;99.90
56542;DHT22;42438;53.174;6.730;2024-02-04T02:43:05;5.30;99.90
56542;DHT22;42438;53.174;6.730;2024-02-04T02:45:39;5.70;99.90
56542;DHT22;42438;53.174;6.730;2024-02-04T02:48:10;5.90;99.90
56542;DHT22;42438;53.174;6.730;2024-02-04T02:50:42;5.00;99.90
56542;DHT22;42438;53.174;6.730;2024-02-04T02:53:12;5.30;99.90
56542;DHT22;42438;53.174;6.730;2024-02-04T02:55:43;5.50;99.90
56542;DHT22;42438;53.174;6.730;2024-02-04T02:58:16;4.90;99.90
56542;DHT22;42438;53.174;6.730;2024-02-04T03:00:47;6.00;99.90
56542;DHT22;42438;53.174;6.730;2024-02-04T03:03:18;5.50;99.90
56542;DHT22;42438;53.174;6.730;2024-02-04T03:05:48;6.20;99.90
56542;DHT22;42438;53.174;6.730;2024-02-04T03:08:19;5.40;99.90
56542;DHT22;42438;53.174;6.730;2024-02-04T03:10:49;6.30;99.90
56542;DHT22;42438;53.174;6.730;2024-02-04T03:13:20;5.70;99.90
56542;DHT22;42438;53.174;6.730;2024-02-04T03:15:51;5.80;99.90
56542;DHT22;42438;53.174;6.730;2024-02-04T03:18:21;6.10;99.90
56542;DHT22;42438;53.174;6.730;2024-02-04T03:20:52;4.90;99.90
56542;DHT22;42438;53.174;6.730;2024-02-04T03:23:22;5.80;99.90
56542;DHT22;42438;53.174;6.730;2024-02-04T03:25:53;4.90;99.90
56542;DHT22;42438;53.174;6.730;2024-02-04T03:28:24;4.90;99.90
56542;DHT22;42438;53.174;6.730;2024-02-04T03:30:54;5.40;99.90
56542;DHT22;42438;53.174;6.730;2024-02-04T03:33:25;5.70;99.90
56542;DHT22;42438;53.174;6.730;2024-02-04T03:35:55;5.00;99.90
56542;DHT22;42438;53.174;6.730;2024-02-04T03:38:26;5.00;99.90
56542;DHT22;42438;53.174;6.730;2024-02-04T03:40:57;4.90;99.90
56542;DHT22;42438;53.174;6.730;2024-02-04T03:43:27;5.80;99.90
56542;DHT22;42438;53.174;6.730;2024-02-04T03:45:58;5.50;99.90
56542;DHT22;42438;53.174;6.730;2024-02-04T03:48:28;5.20;99.90
56542;DHT22;42438;53.174;6.730;2024-02-04T03:50:59;5.70;99.90
56542;DHT22;42438;53.174;6.730;2024-02-04T03:53:30;5.70;99.90
56542;DHT22;42438;53.174;6.730;2024-02-04T03:56:00;6.30;99.90
56542;DHT22;42438;53.174;6.730;2024-02-04T03:58:32;6.40;99.90
56542;DHT22;42438;53.174;6.730;2024-02-04T04:01:03;6.70;99.90
56542;DHT22;42438;53.174;6.730;2024-02-04T04:03:34;5.90;99.90
56542;DHT22;42438;53.174;6.730;2024-02-04T04:06:05;6.30;99.90
56542;DHT22;42438;53.174;6.730;2024-02-04T04:08:36;5.40;99.90
56542;DHT22;42438;53.174;6.730;2024-02-04T04:11:10;5.50;99.90
56542;DHT22;42438;53.174;6.730;2024-02-04T04:13:41;5.90;99.90
56542;DHT22;42438;53.174;6.730;2024-02-04T04:16:12;6.40;99.90
56542;DHT22;42438;53.174;6.730;2024-02-04T04:18:42;6.20;99.90
56542;DHT22;42438;53.174;6.730;2024-02-04T04:21:13;6.30;99.90
56542;DHT22;42438;53.174;6.730;2024-02-04T04:23:43;6.30;99.90
56542;DHT22;42438;53.174;6.730;2024-02-04T04:26:14;5.70;99.90
56542;DHT22;42438;53.174;6.730;2024-02-04T04:28:45;5.50;99.90
56542;DHT22;42438;53.174;6.730;2024-02-04T04:31:15;6.30;99.90
56542;DHT22;42438;53.174;6.730;2024-02-04T04:33:46;6.10;99.90
56542;DHT22;42438;53.174;6.730;2024-02-04T04:36:17;6.10;99.90
56542;DHT22;42438;53.174;6.730;2024-02-04T04:38:47;5.70;99.90
56542;DHT22;42438;53.174;6.730;2024-02-04T04:41:20;5.90;99.90
56542;DHT22;42438;53.174;6.730;2024-02-04T04:43:51;5.70;99.90
56542;DHT22;42438;53.174;6.730;2024-02-04T04:46:22;6.30;99.90
56542;DHT22;42438;53.174;6.730;2024-02-04T04:48:52;6.90;99.90
56542;DHT22;42438;53.174;6.730;2024-02-04T04:51:23;6.30;99.90
56542;DHT22;42438;53.174;6.730;2024-02-04T04:53:54;7.30;99.90
56542;DHT22;42438;53.174;6.730;2024-02-04T04:56:25;6.30;99.90
56542;DHT22;42438;53.174;6.730;2024-02-04T04:58:55;5.70;99.90
56542;DHT22;42438;53.174;6.730;2024-02-04T05:01:26;6.80;99.90
56542;DHT22;42438;53.174;6.730;2024-02-04T05:03:56;5.70;99.90
56542;DHT22;42438;53.174;6.730;2024-02-04T05:06:27;6.30;99.90
56542;DHT22;42438;53.174;6.730;2024-02-04T05:08:58;6.20;99.90
56542;DHT22;42438;53.174;6.730;2024-02-04T05:11:29;6.40;99.90
56542;DHT22;42438;53.174;6.730;2024-02-04T05:14:00;6.10;99.90
56542;DHT22;42438;53.174;6.730;2024-02-04T05:16:31;6.10;99.90
56542;DHT22;42438;53.174;6.730;2024-02-04T05:19:02;6.20;99.90
56542;DHT22;42438;53.174;6.730;2024-02-04T05:21:33;6.60;99.90
56542;DHT22;42438;53.174;6.730;2024-02-04T05:24:03;5.90;99.90
56542;DHT22;42438;53.174;6.730;2024-02-04T05:26:34;6.30;99.90
56542;DHT22;42438;53.174;6.730;2024-02-04T05:29:05;6.10;99.90
56542;DHT22;42438;53.174;6.730;2024-02-04T05:31:42;6.30;99.90
56542;DHT22;42438;53.174;6.730;2024-02-04T05:34:13;6.00;99.90
56542;DHT22;42438;53.174;6.730;2024-02-04T05:36:44;6.40;99.90
56542;DHT22;42438;53.174;6.730;2024-02-04T05:39:15;5.90;99.90
56542;DHT22;42438;53.174;6.730;2024-02-04T05:41:46;6.40;99.90
56542;DHT22;42438;53.174;6.730;2024-02-04T05:44:17;6.00;99.90
56542;DHT22;42438;53.174;6.730;2024-02-04T05:46:48;6.40;99.90
56542;DHT22;42438;53.174;6.730;2024-02-04T05:49:18;6.00;99.90
56542;DHT22;42438;53.174;6.730;2024-02-04T05:51:49;6.00;99.90
56542;DHT22;42438;53.174;6.730;2024-02-04T05:54:19;6.10;99.90
56542;DHT22;42438;53.174;6.730;2024-02-04T05:56:50;6.60;99.90
56542;DHT22;42438;53.174;6.730;2024-02-04T05:59:21;6.10;99.90
56542;DHT22;42438;53.174;6.730;2024-02-04T06:01:51;7.20;99.90
56542;DHT22;42438;53.174;6.730;2024-02-04T06:04:22;6.10;99.90
56542;DHT22;42438;53.174;6.730;2024-02-04T06:06:52;6.00;99.90
56542;DHT22;42438;53.174;6.730;2024-02-04T06:09:23;6.10;99.90
56542;DHT22;42438;53.174;6.730;2024-02-04T06:11:54;6.00;99.90
56542;DHT22;42438;53.174;6.730;2024-02-04T06:14:24;6.00;99.90
56542;DHT22;42438;53.174;6.730;2024-02-04T06:16:55;6.60;99.90
56542;DHT22;42438;53.174;6.730;2024-02-04T06:19:26;6.50;99.90
56542;DHT22;42438;53.174;6.730;2024-02-04T06:21:56;6.50;99.90
56542;DHT22;42438;53.174;6.730;2024-02-04T06:24:27;6.20;99.90
56542;DHT22;42438;53.174;6.730;2024-02-04T06:26:57;6.00;99.90
56542;DHT22;42438;53.174;6.730;2024-02-04T06:29:28;6.20;99.90
56542;DHT22;42438;53.174;6.730;2024-02-04T06:31:59;6.30;99.90
56542;DHT22;42438;53.174;6.730;2024-02-04T06:34:29;6.60;99.90
56542;DHT22;42438;53.174;6.730;2024-02-04T06:37:00;6.10;99.90
56542;DHT22;42438;53.174;6.730;2024-02-04T06:39:30;6.10;99.90
56542;DHT22;42438;53.174;6.730;2024-02-04T06:42:01;6.50;99.90
56542;DHT22;42438;53.174;6.730;2024-02-04T06:44:32;6.50;99.90
56542;DHT22;42438;53.174;6.730;2024-02-04T06:47:02;6.80;99.90
56542;DHT22;42438;53.174;6.730;2024-02-04T06:49:33;6.50;99.90
56542;DHT22;42438;53.174;6.730;2024-02-04T06:52:04;6.70;99.90
56542;DHT22;42438;53.174;6.730;2024-02-04T06:54:35;6.60;99.90
56542;DHT22;42438;53.174;6.730;2024-02-04T06:57:05;6.50;99.90
56542;DHT22;42438;53.174;6.730;2024-02-04T06:59:36;6.50;99.90
56542;DHT22;42438;53.174;6.730;2024-02-04T07:02:07;6.30;99.90
56542;DHT22;42438;53.174;6.730;2024-02-04T07:04:37;6.80;99.90
56542;DHT22;42438;53.174;6.730;2024-02-04T07:07:08;6.60;80.00
56542;DHT22;42438;53.174;6.730;2024-02-04T07:09:38;6.30;8.70
56542;DHT22;42438;53.174;6.730;2024-02-04T07:12:09;6.60;1.00
56542;DHT22;42438;53.174;6.730;2024-02-04T07:14:40;6.40;1.00
56542;DHT22;42438;53.174;6.730;2024-02-04T07:17:11;6.90;1.00
56542;DHT22;42438;53.174;6.730;2024-02-04T07:19:42;6.70;1.00
56542;DHT22;42438;53.174;6.730;2024-02-04T07:22:12;6.70;99.90
56542;DHT22;42438;53.174;6.730;2024-02-04T07:24:43;6.50;99.90
56542;DHT22;42438;53.174;6.730;2024-02-04T07:27:14;6.90;99.90
56542;DHT22;42438;53.174;6.730;2024-02-04T07:29:44;6.90;1.00
56542;DHT22;42438;53.174;6.730;2024-02-04T07:32:15;7.70;99.90
56542;DHT22;42438;53.174;6.730;2024-02-04T07:34:46;6.80;1.00
56542;DHT22;42438;53.174;6.730;2024-02-04T07:37:16;6.60;1.00
56542;DHT22;42438;53.174;6.730;2024-02-04T07:39:48;6.60;99.90
56542;DHT22;42438;53.174;6.730;2024-02-04T07:42:19;7.00;1.00
56542;DHT22;42438;53.174;6.730;2024-02-04T07:44:49;7.00;52.00
56542;DHT22;42438;53.174;6.730;2024-02-04T07:47:20;6.70;99.90
56542;DHT22;42438;53.174;6.730;2024-02-04T07:49:51;8.00;99.90
56542;DHT22;42438;53.174;6.730;2024-02-04T07:52:22;6.70;94.30
56542;DHT22;42438;53.174;6.730;2024-02-04T07:54:53;7.00;99.90
56542;DHT22;42438;53.174;6.730;2024-02-04T07:57:23;7.20;1.00
56542;DHT22;42438;53.174;6.730;2024-02-04T07:59:54;7.10;99.90
56542;DHT22;42438;53.174;6.730;2024-02-04T08:02:25;6.80;1.00
56542;DHT22;42438;53.174;6.730;2024-02-04T08:04:56;7.30;99.90
56542;DHT22;42438;53.174;6.730;2024-02-04T08:07:27;7.20;1.00
56542;DHT22;42438;53.174;6.730;2024-02-04T08:09:58;7.20;1.00
56542;DHT22;42438;53.174;6.730;2024-02-04T08:12:28;7.40;99.90
56542;DHT22;42438;53.174;6.730;2024-02-04T08:14:59;7.10;99.90
56542;DHT22;42438;53.174;6.730;2024-02-04T08:17:29;7.20;93.60
56542;DHT22;42438;53.174;6.730;2024-02-04T08:20:01;7.10;1.00
56542;DHT22;42438;53.174;6.730;2024-02-04T08:22:34;7.50;48.10
56542;DHT22;42438;53.174;6.730;2024-02-04T08:25:05;7.30;1.00
56542;DHT22;42438;53.174;6.730;2024-02-04T08:27:36;7.50;1.00
56542;DHT22;42438;53.174;6.730;2024-02-04T08:30:07;7.10;99.90
56542;DHT22;42438;53.174;6.730;2024-02-04T08:32:38;7.50;99.90
56542;DHT22;42438;53.174;6.730;2024-02-04T08:35:09;7.20;99.90
56542;DHT22;42438;53.174;6.730;2024-02-04T08:37:39;7.40;99.90
56542;DHT22;42438;53.174;6.730;2024-02-04T08:40:10;7.50;99.90
56542;DHT22;42438;53.174;6.730;2024-02-04T08:42:41;7.50;99.90
56542;DHT22;42438;53.174;6.730;2024-02-04T08:45:11;7.60;99.90
56542;DHT22;42438;53.174;6.730;2024-02-04T08:47:42;7.70;99.90
56542;DHT22;42438;53.174;6.730;2024-02-04T08:50:13;7.80;99.90
56542;DHT22;42438;53.174;6.730;2024-02-04T08:52:44;7.60;99.90
56542;DHT22;42438;53.174;6.730;2024-02-04T08:55:15;8.00;99.90
56542;DHT22;42438;53.174;6.730;2024-02-04T08:57:45;7.90;88.50
56542;DHT22;42438;53.174;6.730;2024-02-04T09:00:19;7.70;1.00
56542;DHT22;42438;53.174;6.730;2024-02-04T09:02:50;7.90;1.00
56542;DHT22;42438;53.174;6.730;2024-02-04T09:05:20;8.00;1.00
56542;DHT22;42438;53.174;6.730;2024-02-04T09:07:51;7.60;1.00
56542;DHT22;42438;53.174;6.730;2024-02-04T09:10:22;7.80;1.00
56542;DHT22;42438;53.174;6.730;2024-02-04T09:12:52;7.80;1.00
56542;DHT22;42438;53.174;6.730;2024-02-04T09:15:23;7.70;1.00
56542;DHT22;42438;53.174;6.730;2024-02-04T09:17:54;7.70;99.90
56542;DHT22;42438;53.174;6.730;2024-02-04T09:20:24;7.80;99.90
56542;DHT22;42438;53.174;6.730;2024-02-04T09:22:55;8.10;99.90
56542;DHT22;42438;53.174;6.730;2024-02-04T09:25:25;8.30;99.90
56542;DHT22;42438;53.174;6.730;2024-02-04T09:27:56;7.90;64.40
56542;DHT22;42438;53.174;6.730;2024-02-04T09:30:27;8.30;1.00
56542;DHT22;42438;53.174;6.730;2024-02-04T09:32:57;8.10;1.00
56542;DHT22;42438;53.174;6.730;2024-02-04T09:35:28;8.20;1.00
56542;DHT22;42438;53.174;6.730;2024-02-04T09:37:59;8.40;1.00
56542;DHT22;42438;53.174;6.730;2024-02-04T09:40:29;8.40;1.00
56542;DHT22;42438;53.174;6.730;2024-02-04T09:43:01;8.40;1.00
56542;DHT22;42438;53.174;6.730;2024-02-04T09:45:31;8.00;1.00
56542;DHT22;42438;53.174;6.730;2024-02-04T09:48:03;9.50;1.00
56542;DHT22;42438;53.174;6.730;2024-02-04T09:50:34;8.40;1.00
56542;DHT22;42438;53.174;6.730;2024-02-04T09:53:07;8.50;1.00
56542;DHT22;42438;53.174;6.730;2024-02-04T09:55:39;8.80;99.90
56542;DHT22;42438;53.174;6.730;2024-02-04T09:58:11;8.20;99.90
56542;DHT22;42438;53.174;6.730;2024-02-04T10:00:42;8.50;99.90
56542;DHT22;42438;53.174;6.730;2024-02-04T10:03:15;10.10;99.90
56542;DHT22;42438;53.174;6.730;2024-02-04T10:05:46;8.30;99.90
56542;DHT22;42438;53.174;6.730;2024-02-04T10:08:17;8.60;99.90
56542;DHT22;42438;53.174;6.730;2024-02-04T10:10:48;8.70;99.90
56542;DHT22;42438;53.174;6.730;2024-02-04T10:13:19;8.60;99.90
56542;DHT22;42438;53.174;6.730;2024-02-04T10:15:51;8.30;99.90
56542;DHT22;42438;53.174;6.730;2024-02-04T10:18:22;8.70;99.90
56542;DHT22;42438;53.174;6.730;2024-02-04T10:20:52;8.40;99.90
56542;DHT22;42438;53.174;6.730;2024-02-04T10:23:23;8.60;99.90
56542;DHT22;42438;53.174;6.730;2024-02-04T10:26:00;8.60;99.90
56542;DHT22;42438;53.174;6.730;2024-02-04T10:28:30;8.40;99.90
56542;DHT22;42438;53.174;6.730;2024-02-04T10:31:01;8.50;99.90
56542;DHT22;42438;53.174;6.730;2024-02-04T10:33:36;8.60;99.90
56542;DHT22;42438;53.174;6.730;2024-02-04T10:36:07;8.60;99.90
56542;DHT22;42438;53.174;6.730;2024-02-04T10:38:38;8.80;99.90
56542;DHT22;42438;53.174;6.730;2024-02-04T10:41:11;8.60;85.70
56542;DHT22;42438;53.174;6.730;2024-02-04T10:43:44;9.10;75.70
56542;DHT22;42438;53.174;6.730;2024-02-04T10:46:18;9.00;44.10
56542;DHT22;42438;53.174;6.730;2024-02-04T10:48:55;9.30;28.10
56542;DHT22;42438;53.174;6.730;2024-02-04T10:51:27;8.90;1.00
56542;DHT22;42438;53.174;6.730;2024-02-04T10:53:58;9.00;1.00
56542;DHT22;42438;53.174;6.730;2024-02-04T10:56:58;9.00;1.00
56542;DHT22;42438;53.174;6.730;2024-02-04T10:59:31;9.10;1.00
56542;DHT22;42438;53.174;6.730;2024-02-04T11:02:05;9.00;1.00
56542;DHT22;42438;53.174;6.730;2024-02-04T11:04:36;9.10;1.00
56542;DHT22;42438;53.174;6.730;2024-02-04T11:07:10;8.90;1.00
56542;DHT22;42438;53.174;6.730;2024-02-04T11:09:41;8.90;1.00
56542;DHT22;42438;53.174;6.730;2024-02-04T11:12:13;9.30;1.00
56542;DHT22;42438;53.174;6.730;2024-02-04T11:14:48;9.10;1.00
56542;DHT22;42438;53.174;6.730;2024-02-04T11:26:01;9.10;1.00
56542;DHT22;42438;53.174;6.730;2024-02-04T11:28:31;9.20;1.00
56542;DHT22;42438;53.174;6.730;2024-02-04T11:31:03;9.20;1.00
56542;DHT22;42438;53.174;6.730;2024-02-04T11:33:34;9.00;1.00
56542;DHT22;42438;53.174;6.730;2024-02-04T11:36:05;9.10;1.00
56542;DHT22;42438;53.174;6.730;2024-02-04T11:38:37;9.30;1.00
56542;DHT22;42438;53.174;6.730;2024-02-04T11:41:08;9.10;1.00
56542;DHT22;42438;53.174;6.730;2024-02-04T11:43:39;9.10;1.00
56542;DHT22;42438;53.174;6.730;2024-02-04T11:46:16;8.90;1.00
56542;DHT22;42438;53.174;6.730;2024-02-04T11:48:52;9.10;1.00
56542;DHT22;42438;53.174;6.730;2024-02-04T11:51:24;9.40;1.00
56542;DHT22;42438;53.174;6.730;2024-02-04T11:53:55;9.40;1.00
56542;DHT22;42438;53.174;6.730;2024-02-04T11:56:26;9.50;1.00
56542;DHT22;42438;53.174;6.730;2024-02-04T11:58:58;9.20;1.00
56542;DHT22;42438;53.174;6.730;2024-02-04T12:01:31;9.20;1.00
56542;DHT22;42438;53.174;6.730;2024-02-04T12:04:13;9.30;1.00
56542;DHT22;42438;53.174;6.730;2024-02-04T12:06:44;9.50;1.00
56542;DHT22;42438;53.174;6.730;2024-02-04T12:09:17;9.50;1.00
56542;DHT22;42438;53.174;6.730;2024-02-04T12:11:53;9.50;1.00
56542;DHT22;42438;53.174;6.730;2024-02-04T12:14:25;9.30;1.00
56542;DHT22;42438;53.174;6.730;2024-02-04T12:16:58;9.60;1.00
56542;DHT22;42438;53.174;6.730;2024-02-04T12:19:37;9.50;1.00
56542;DHT22;42438;53.174;6.730;2024-02-04T12:22:08;9.70;1.00
56542;DHT22;42438;53.174;6.730;2024-02-04T12:24:40;9.40;1.00
56542;DHT22;42438;53.174;6.730;2024-02-04T12:27:11;9.30;1.00
56542;DHT22;42438;53.174;6.730;2024-02-04T12:29:41;9.60;1.00
56542;DHT22;42438;53.174;6.730;2024-02-04T12:32:13;9.30;1.00
56542;DHT22;42438;53.174;6.730;2024-02-04T12:34:48;10.00;1.00
56542;DHT22;42438;53.174;6.730;2024-02-04T12:37:19;9.60;1.00
56542;DHT22;42438;53.174;6.730;2024-02-04T12:39:49;9.90;1.00
56542;DHT22;42438;53.174;6.730;2024-02-04T12:42:20;9.80;1.00
56542;DHT22;42438;53.174;6.730;2024-02-04T12:44:52;9.80;1.00
56542;DHT22;42438;53.174;6.730;2024-02-04T12:47:26;9.40;1.00
56542;DHT22;42438;53.174;6.730;2024-02-04T12:49:59;9.30;1.00
56542;DHT22;42438;53.174;6.730;2024-02-04T12:52:31;9.30;1.00
56542;DHT22;42438;53.174;6.730;2024-02-04T12:55:05;9.60;1.00
56542;DHT22;42438;53.174;6.730;2024-02-04T12:57:45;9.20;1.00
56542;DHT22;42438;53.174;6.730;2024-02-04T13:00:20;9.60;1.00
56542;DHT22;42438;53.174;6.730;2024-02-04T13:02:51;9.40;1.00
56542;DHT22;42438;53.174;6.730;2024-02-04T13:05:23;9.20;1.00
56542;DHT22;42438;53.174;6.730;2024-02-04T13:07:57;9.30;99.90
56542;DHT22;42438;53.174;6.730;2024-02-04T13:10:29;9.40;99.90
56542;DHT22;42438;53.174;6.730;2024-02-04T13:13:10;9.60;99.90
56542;DHT22;42438;53.174;6.730;2024-02-04T13:15:42;9.20;99.90
56542;DHT22;42438;53.174;6.730;2024-02-04T13:18:13;9.30;99.90
56542;DHT22;42438;53.174;6.730;2024-02-04T13:20:46;9.50;99.90
56542;DHT22;42438;53.174;6.730;2024-02-04T13:23:17;9.50;99.90
56542;DHT22;42438;53.174;6.730;2024-02-04T13:25:48;9.40;99.90
56542;DHT22;42438;53.174;6.730;2024-02-04T13:28:18;9.50;99.90
56542;DHT22;42438;53.174;6.730;2024-02-04T13:30:49;9.20;99.90
56542;DHT22;42438;53.174;6.730;2024-02-04T13:33:20;9.30;99.90
56542;DHT22;42438;53.174;6.730;2024-02-04T13:35:50;9.20;99.90
56542;DHT22;42438;53.174;6.730;2024-02-04T13:38:21;9.40;99.90
56542;DHT22;42438;53.174;6.730;2024-02-04T13:40:53;9.00;99.90
56542;DHT22;42438;53.174;6.730;2024-02-04T13:43:24;9.10;99.90
56542;DHT22;42438;53.174;6.730;2024-02-04T13:45:55;9.30;99.90
56542;DHT22;42438;53.174;6.730;2024-02-04T13:48:25;9.10;99.90
56542;DHT22;42438;53.174;6.730;2024-02-04T13:50:56;9.30;99.90
56542;DHT22;42438;53.174;6.730;2024-02-04T13:53:27;8.90;1.00
56542;DHT22;42438;53.174;6.730;2024-02-04T13:55:58;8.80;1.00
56542;DHT22;42438;53.174;6.730;2024-02-04T13:58:29;8.90;1.00
56542;DHT22;42438;53.174;6.730;2024-02-04T14:00:59;8.80;1.00
56542;DHT22;42438;53.174;6.730;2024-02-04T14:03:31;8.70;1.00
56542;DHT22;42438;53.174;6.730;2024-02-04T14:06:02;8.70;1.00
56542;DHT22;42438;53.174;6.730;2024-02-04T14:08:34;8.70;1.00
56542;DHT22;42438;53.174;6.730;2024-02-04T14:11:05;8.60;42.20
56542;DHT22;42438;53.174;6.730;2024-02-04T14:13:35;8.60;99.20
56542;DHT22;42438;53.174;6.730;2024-02-04T14:16:06;9.00;99.90
56542;DHT22;42438;53.174;6.730;2024-02-04T14:18:39;8.50;99.90
56542;DHT22;42438;53.174;6.730;2024-02-04T14:21:11;8.50;99.90
56542;DHT22;42438;53.174;6.730;2024-02-04T14:23:44;8.60;99.90
56542;DHT22;42438;53.174;6.730;2024-02-04T14:26:23;8.40;1.00
56542;DHT22;42438;53.174;6.730;2024-02-04T14:28:54;8.90;50.60
56542;DHT22;42438;53.174;6.730;2024-02-04T14:31:25;8.50;99.90
56542;DHT22;42438;53.174;6.730;2024-02-04T14:33:55;8.70;99.90
56542;DHT22;42438;53.174;6.730;2024-02-04T14:36:26;8.90;98.10
56542;DHT22;42438;53.174;6.730;2024-02-04T14:38:57;8.90;99.90
56542;DHT22;42438;53.174;6.730;2024-02-04T14:41:28;8.90;1.00
56542;DHT22;42438;53.174;6.730;2024-02-04T14:43:58;8.40;99.90
56542;DHT22;42438;53.174;6.730;2024-02-04T14:46:29;8.80;4.30
56542;DHT22;42438;53.174;6.730;2024-02-04T14:49:00;8.80;99.90
56542;DHT22;42438;53.174;6.730;2024-02-04T14:51:30;9.80;77.50
56542;DHT22;42438;53.174;6.730;2024-02-04T14:54:01;9.50;99.90
56542;DHT22;42438;53.174;6.730;2024-02-04T14:56:37;8.60;99.90
56542;DHT22;42438;53.174;6.730;2024-02-04T14:59:09;9.40;99.90
56542;DHT22;42438;53.174;6.730;2024-02-04T15:01:44;8.50;1.00
56542;DHT22;42438;53.174;6.730;2024-02-04T15:04:16;8.40;99.90
56542;DHT22;42438;53.174;6.730;2024-02-04T15:06:47;8.60;99.90
56542;DHT22;42438;53.174;6.730;2024-02-04T15:09:18;8.80;99.90
56542;DHT22;42438;53.174;6.730;2024-02-04T15:11:49;8.40;99.90
56542;DHT22;42438;53.174;6.730;2024-02-04T15:14:20;9.00;1.00
56542;DHT22;42438;53.174;6.730;2024-02-04T15:16:51;8.40;1.00
56542;DHT22;42438;53.174;6.730;2024-02-04T15:19:24;9.00;1.00
56542;DHT22;42438;53.174;6.730;2024-02-04T15:21:56;8.90;1.00
56542;DHT22;42438;53.174;6.730;2024-02-04T15:24:27;8.50;1.00
56542;DHT22;42438;53.174;6.730;2024-02-04T15:26:59;8.40;1.00
56542;DHT22;42438;53.174;6.730;2024-02-04T15:29:37;8.80;1.00
56542;DHT22;42438;53.174;6.730;2024-02-04T15:32:09;9.00;1.00
56542;DHT22;42438;53.174;6.730;2024-02-04T15:34:41;8.80;1.00
56542;DHT22;42438;53.174;6.730;2024-02-04T15:37:12;9.00;1.00
56542;DHT22;42438;53.174;6.730;2024-02-04T15:39:43;8.40;1.00
56542;DHT22;42438;53.174;6.730;2024-02-04T15:42:14;8.50;42.30
56542;DHT22;42438;53.174;6.730;2024-02-04T15:44:44;9.00;92.60
56542;DHT22;42438;53.174;6.730;2024-02-04T15:47:15;9.80;99.00
56542;DHT22;42438;53.174;6.730;2024-02-04T15:49:47;8.90;99.90
56542;DHT22;42438;53.174;6.730;2024-02-04T15:52:18;9.10;99.90
56542;DHT22;42438;53.174;6.730;2024-02-04T15:54:49;9.10;99.90
56542;DHT22;42438;53.174;6.730;2024-02-04T15:57:23;9.20;99.90
56542;DHT22;42438;53.174;6.730;2024-02-04T16:00:01;9.20;99.90
56542;DHT22;42438;53.174;6.730;2024-02-04T16:02:41;8.70;99.90
56542;DHT22;42438;53.174;6.730;2024-02-04T16:05:15;9.10;99.90
56542;DHT22;42438;53.174;6.730;2024-02-04T16:07:47;8.80;99.90
56542;DHT22;42438;53.174;6.730;2024-02-04T16:10:18;8.60;99.90
56542;DHT22;42438;53.174;6.730;2024-02-04T16:12:55;8.70;99.90
56542;DHT22;42438;53.174;6.730;2024-02-04T16:15:27;8.70;99.90
56542;DHT22;42438;53.174;6.730;2024-02-04T16:17:58;9.20;99.90
56542;DHT22;42438;53.174;6.730;2024-02-04T16:20:29;9.20;99.90
56542;DHT22;42438;53.174;6.730;2024-02-04T16:23:00;8.70;99.90
56542;DHT22;42438;53.174;6.730;2024-02-04T16:25:31;9.30;99.90